Time;durP1;ratioP1;P1;durP2;ratioP2;P2;SDS_P1;SDS_P2;PMS_P1;PMS_P2;Temp;Humidity;BMP_temperature;BMP_pressure;BME280_temperature;BME280_humidity;BME280_pressure;Samples;Min_cycle;Max_cycle;Signal;HPM_P1;HPM_P2
2022/12/27 00:00:39;;;;;;;57.87;30.33;;;1.50;99.90;;;;;;4130533;28;20272;-61
2022/12/27 00:02:41;;;;;;;58.70;30.30;;;1.50;99.90;;;;;;4130503;28;20311;-54
2022/12/27 00:04:42;;;;;;;61.73;32.27;;;1.50;99.90;;;;;;4130226;28;20268;-55
2022/12/27 00:06:43;;;;;;;63.50;32.43;;;1.50;99.90;;;;;;4128794;28;20322;-57
2022/12/27 00:08:45;;;;;;;61.47;32.53;;;1.60;99.90;;;;;;4129988;28;20264;-56
2022/12/27 00:10:46;;;;;;;59.13;31.47;;;1.60;99.90;;;;;;4129409;28;20818;-64
2022/12/27 00:12:47;;;;;;;61.60;32.63;;;1.70;99.90;;;;;;4131052;28;20370;-60
2022/12/27 00:14:48;;;;;;;60.27;32.73;;;1.70;99.90;;;;;;4129913;28;20448;-61
2022/12/27 00:16:49;;;;;;;61.63;33.97;;;1.70;99.90;;;;;;4131120;28;20272;-59
2022/12/27 00:18:51;;;;;;;61.97;33.57;;;1.70;99.90;;;;;;4128679;28;20264;-58
2022/12/27 00:20:59;;;;;;;66.97;36.37;;;1.70;99.90;;;;;;4130719;28;20660;-55
2022/12/27 00:23:00;;;;;;;66.87;34.23;;;1.70;99.90;;;;;;4129892;28;20586;-63
2022/12/27 00:25:01;;;;;;;70.47;34.97;;;1.70;99.90;;;;;;4130811;28;20319;-61
2022/12/27 00:27:03;;;;;;;65.83;34.97;;;1.80;99.90;;;;;;4129630;28;20260;-54
2022/12/27 00:29:04;;;;;;;66.53;34.13;;;1.80;99.90;;;;;;4130404;28;20280;-57
2022/12/27 00:31:06;;;;;;;57.27;31.90;;;1.90;99.90;;;;;;4129376;28;20729;-62
2022/12/27 00:33:07;;;;;;;59.23;32.43;;;1.90;99.90;;;;;;4111740;28;20272;-55
2022/12/27 00:35:08;;;;;;;60.40;34.97;;;1.90;99.90;;;;;;4129304;28;20297;-57
2022/12/27 00:37:09;;;;;;;59.23;31.43;;;2.00;99.90;;;;;;4129650;28;20276;-55
2022/12/27 00:39:11;;;;;;;57.13;31.20;;;2.00;99.90;;;;;;4130573;28;20704;-58
2022/12/27 00:41:12;;;;;;;56.10;30.17;;;2.10;99.90;;;;;;4129451;28;20256;-53
2022/12/27 00:43:13;;;;;;;64.43;32.93;;;2.10;99.90;;;;;;4129673;28;20264;-61
2022/12/27 00:45:14;;;;;;;58.50;32.27;;;2.20;99.90;;;;;;4129473;28;21016;-61
2022/12/27 00:47:16;;;;;;;60.40;31.67;;;2.20;99.90;;;;;;4130460;28;20269;-54
2022/12/27 00:49:17;;;;;;;59.43;32.40;;;2.20;99.90;;;;;;4128368;28;20280;-59
2022/12/27 00:51:22;;;;;;;61.10;31.33;;;2.20;99.90;;;;;;4130223;28;20267;-56
2022/12/27 00:53:24;;;;;;;61.60;29.60;;;2.20;99.90;;;;;;4129271;28;20261;-57
2022/12/27 00:55:25;;;;;;;57.27;31.57;;;2.20;99.90;;;;;;4112777;28;20305;-58
2022/12/27 00:57:26;;;;;;;59.13;33.00;;;2.20;99.90;;;;;;4128263;28;20265;-60
2022/12/27 00:59:27;;;;;;;63.87;33.30;;;2.20;99.90;;;;;;4130067;28;20663;-59
2022/12/27 01:01:31;;;;;;;58.43;32.57;;;2.20;99.90;;;;;;4129477;28;20248;-58
2022/12/27 01:03:32;;;;;;;58.30;33.00;;;2.20;99.90;;;;;;4129835;28;20280;-57
2022/12/27 01:05:36;;;;;;;58.17;32.53;;;2.30;99.90;;;;;;4128736;28;20265;-57
2022/12/27 01:07:37;;;;;;;57.83;31.63;;;2.30;99.90;;;;;;4128430;28;20823;-58
2022/12/27 01:09:38;;;;;;;60.03;33.27;;;2.30;99.90;;;;;;4129059;28;20849;-61
2022/12/27 01:11:40;;;;;;;56.50;31.13;;;2.30;99.90;;;;;;4129076;28;20319;-62
2022/12/27 01:13:42;;;;;;;56.40;30.50;;;2.30;99.90;;;;;;4129957;28;20326;-57
2022/12/27 01:15:43;;;;;;;51.10;28.63;;;2.40;99.90;;;;;;4129095;28;20268;-53
2022/12/27 01:17:44;;;;;;;56.83;31.33;;;2.40;99.90;;;;;;4130050;28;20688;-56
2022/12/27 01:19:45;;;;;;;56.90;31.33;;;2.40;99.90;;;;;;4128728;28;20351;-57
2022/12/27 01:21:46;;;;;;;57.60;30.40;;;2.50;99.90;;;;;;4129282;28;20394;-61
2022/12/27 01:23:48;;;;;;;52.53;28.83;;;2.50;99.90;;;;;;4128759;28;20280;-59
2022/12/27 01:25:57;;;;;;;52.07;28.60;;;2.50;99.90;;;;;;4130009;28;20264;-60
2022/12/27 01:27:58;;;;;;;53.57;28.70;;;2.60;99.90;;;;;;4128840;28;20307;-58
2022/12/27 01:29:59;;;;;;;52.23;27.67;;;2.60;99.90;;;;;;4129911;28;20315;-65
2022/12/27 01:32:00;;;;;;;48.70;27.83;;;2.70;99.90;;;;;;4127681;28;20319;-63
2022/12/27 01:34:01;;;;;;;48.13;26.67;;;2.70;99.90;;;;;;4129569;28;20268;-58
2022/12/27 01:36:09;;;;;;;53.00;29.17;;;2.70;99.90;;;;;;4128705;28;20311;-58
2022/12/27 01:38:11;;;;;;;50.30;27.20;;;2.70;99.90;;;;;;4111861;28;20335;-61
2022/12/27 01:40:12;;;;;;;45.70;25.43;;;2.70;99.90;;;;;;4129085;28;20261;-55
2022/12/27 01:44:37;;;;;;;49.60;26.63;;;2.70;99.90;;;;;;4129166;28;20322;-57
2022/12/27 01:46:38;;;;;;;54.20;27.07;;;2.70;99.90;;;;;;4129157;28;20330;-55
2022/12/27 01:48:40;;;;;;;46.70;26.47;;;2.80;99.90;;;;;;4128450;28;20268;-62
2022/12/27 01:50:46;;;;;;;50.40;25.87;;;2.80;99.90;;;;;;4128574;28;20317;-59
2022/12/27 01:52:56;;;;;;;47.37;26.77;;;2.70;99.90;;;;;;4129215;28;20783;-57
2022/12/27 01:55:04;;;;;;;54.40;30.40;;;2.60;99.90;;;;;;4128433;28;20304;-57
2022/12/27 01:57:05;;;;;;;57.67;30.87;;;2.50;99.90;;;;;;4128831;28;20261;-59
2022/12/27 01:59:08;;;;;;;55.93;30.50;;;2.50;99.90;;;;;;4127676;28;20260;-62
2022/12/27 02:01:20;;;;;;;60.73;31.40;;;2.50;99.90;;;;;;4129266;28;20614;-53
2022/12/27 02:03:28;;;;;;;53.00;30.27;;;2.50;99.90;;;;;;4128131;28;20342;-56
2022/12/27 02:05:29;;;;;;;57.20;30.40;;;2.50;99.90;;;;;;4128128;28;20652;-65
2022/12/27 02:07:59;;;;;;;52.10;29.07;;;2.50;99.90;;;;;;4128170;28;20299;-58
2022/12/27 02:10:02;;;;;;;52.30;29.23;;;2.50;99.90;;;;;;4128274;28;20764;-57
2022/12/27 02:12:06;;;;;;;53.80;29.03;;;2.50;99.90;;;;;;4110341;28;20317;-61
2022/12/27 02:14:08;;;;;;;51.93;28.57;;;2.50;99.90;;;;;;4128787;28;20276;-57
2022/12/27 02:16:15;;;;;;;54.33;27.63;;;2.40;99.90;;;;;;4127517;28;20326;-58
2022/12/27 02:18:17;;;;;;;58.80;30.97;;;2.50;99.90;;;;;;4129355;28;20335;-59
2022/12/27 02:20:22;;;;;;;51.63;28.47;;;2.50;99.90;;;;;;4127738;28;20944;-58
2022/12/27 02:25:41;;;;;;;55.83;31.17;;;2.60;99.90;;;;;;4128252;28;20346;-56
2022/12/27 02:28:02;;;;;;;59.90;29.87;;;2.60;99.90;;;;;;4101791;28;20383;-60
2022/12/27 02:30:06;;;;;;;52.80;28.40;;;2.70;99.90;;;;;;4128746;28;20272;-58
2022/12/27 02:32:19;;;;;;;54.70;28.87;;;2.70;99.90;;;;;;4128115;28;20073;-60
2022/12/27 02:34:26;;;;;;;55.77;28.03;;;2.60;99.90;;;;;;4127834;28;20279;-55
2022/12/27 02:36:32;;;;;;;51.83;27.50;;;2.70;99.90;;;;;;4128213;28;20327;-59
2022/12/27 02:38:38;;;;;;;50.10;27.97;;;2.60;99.90;;;;;;4128386;28;20661;-58
2022/12/27 02:53:06;;;;;;;46.13;26.10;;;2.40;99.90;;;;;;4129660;28;20092;-58
2022/12/27 02:55:17;;;;;;;48.80;25.90;;;2.40;99.90;;;;;;4129176;28;20288;-55
2022/12/27 02:57:51;;;;;;;47.43;25.40;;;2.50;99.90;;;;;;4132117;28;20283;-58
2022/12/27 03:05:13;;;;;;;48.97;25.00;;;2.50;99.90;;;;;;4132337;28;20330;-55
2022/12/27 03:07:26;;;;;;;48.45;25.38;;;2.50;99.90;;;;;;4130934;28;20374;-56
2022/12/27 03:17:10;;;;;;;51.40;28.10;;;2.40;99.90;;;;;;4131077;28;20093;-58
2022/12/27 03:26:48;;;;;;;57.00;30.37;;;2.40;99.90;;;;;;4109068;28;20038;-56
2022/12/27 03:34:30;;;;;;;65.93;33.75;;;2.40;99.90;;;;;;4124772;28;20822;-54
2022/12/27 03:39:12;;;;;;;56.70;30.93;;;2.40;99.90;;;;;;4130686;28;21328;-58
2022/12/27 03:43:40;;;;;;;56.83;30.63;;;2.50;99.90;;;;;;4131189;28;20331;-58
2022/12/27 03:48:05;;;;;;;55.27;29.40;;;2.60;99.90;;;;;;4131283;28;20319;-56
2022/12/27 03:50:24;;;;;;;51.87;29.03;;;2.50;99.90;;;;;;4130611;28;20334;-58
2022/12/27 03:52:35;;;;;;;52.13;27.97;;;2.50;99.90;;;;;;4131382;28;20732;-58
2022/12/27 03:54:41;;;;;;;54.27;28.80;;;2.50;99.90;;;;;;4129794;28;20261;-56
2022/12/27 03:56:42;;;;;;;54.20;29.53;;;2.50;99.90;;;;;;4131071;28;20276;-61
2022/12/27 03:58:44;;;;;;;57.80;31.20;;;2.50;99.90;;;;;;4129698;28;20276;-56
2022/12/27 04:00:45;;;;;;;55.30;31.27;;;2.40;99.90;;;;;;4130830;28;20318;-59
2022/12/27 04:02:46;;;;;;;61.67;32.27;;;2.40;99.90;;;;;;4130759;28;20705;-60
2022/12/27 04:04:48;;;;;;;64.80;33.67;;;2.40;99.90;;;;;;4130248;28;20314;-57
2022/12/27 04:06:49;;;;;;;57.53;30.97;;;2.40;99.90;;;;;;4130889;28;20322;-57
2022/12/27 04:34:42;;;;;;;50.47;28.73;;;2.70;99.90;;;;;;4129575;28;20330;-62
2022/12/27 04:36:43;;;;;;;48.27;26.80;;;2.80;99.90;;;;;;4130778;28;20601;-60
2022/12/27 04:38:44;;;;;;;51.07;28.20;;;2.80;99.90;;;;;;4129679;28;20276;-62
2022/12/27 04:55:20;;;;;;;48.17;26.77;;;2.90;99.90;;;;;;4129533;28;20358;-60
2022/12/27 04:57:21;;;;;;;47.00;26.40;;;2.90;99.90;;;;;;4130169;28;20655;-61
2022/12/27 05:04:02;;;;;;;49.90;28.63;;;2.90;99.90;;;;;;4129812;28;20322;-59
2022/12/27 05:06:03;;;;;;;56.43;31.53;;;2.80;99.90;;;;;;4129002;28;20683;-61
2022/12/27 05:15:05;;;;;;;58.00;31.93;;;2.80;99.90;;;;;;4130193;28;20908;-60
2022/12/27 05:17:06;;;;;;;64.00;31.70;;;2.90;99.90;;;;;;4128630;28;20268;-58
2022/12/27 05:19:09;;;;;;;56.60;31.87;;;2.90;99.90;;;;;;4128915;28;20602;-54
2022/12/27 05:21:10;;;;;;;54.37;30.87;;;2.90;99.90;;;;;;4128268;28;20335;-56
2022/12/27 05:25:34;;;;;;;56.63;30.40;;;2.90;99.90;;;;;;4129020;28;20590;-55
2022/12/27 05:27:35;;;;;;;54.43;30.10;;;2.90;99.90;;;;;;4129664;28;20660;-59
2022/12/27 05:29:36;;;;;;;48.73;27.03;;;3.00;99.90;;;;;;4128242;28;20326;-62
2022/12/27 05:31:37;;;;;;;54.57;29.93;;;3.00;99.90;;;;;;4128434;28;20280;-53
2022/12/27 05:33:38;;;;;;;53.60;29.70;;;3.00;99.90;;;;;;4129072;28;20269;-52
2022/12/27 05:35:39;;;;;;;48.93;28.07;;;3.00;99.90;;;;;;4127542;28;20331;-58
2022/12/27 05:37:41;;;;;;;49.40;28.60;;;3.00;99.90;;;;;;4129447;28;20264;-57
2022/12/27 05:39:42;;;;;;;54.80;28.00;;;3.00;99.90;;;;;;4128328;28;20350;-55
2022/12/27 05:41:43;;;;;;;47.83;26.70;;;3.00;99.90;;;;;;4129669;28;20640;-57
2022/12/27 05:43:44;;;;;;;53.23;30.00;;;2.90;99.90;;;;;;4128447;28;20295;-57
2022/12/27 05:45:45;;;;;;;59.83;31.13;;;2.90;99.90;;;;;;4129305;28;20276;-58
2022/12/27 05:47:46;;;;;;;59.60;32.20;;;2.90;99.90;;;;;;4128340;28;20264;-57
2022/12/27 05:49:47;;;;;;;61.33;33.93;;;2.90;99.90;;;;;;4129546;28;20291;-54
2022/12/27 05:51:48;;;;;;;59.13;32.87;;;2.90;99.90;;;;;;4128222;28;20314;-58
2022/12/27 05:53:50;;;;;;;61.47;32.77;;;3.00;99.90;;;;;;4129531;28;20260;-60
2022/12/27 05:56:00;;;;;;;55.73;31.70;;;3.00;99.90;;;;;;4126959;28;20300;-58
2022/12/27 05:58:01;;;;;;;54.50;32.28;;;3.00;99.90;;;;;;4129313;28;20272;-58
2022/12/27 06:00:04;;;;;;;57.30;31.00;;;3.00;99.90;;;;;;4128245;28;20084;-57
2022/12/27 06:02:05;;;;;;;55.10;29.97;;;3.10;99.90;;;;;;4128901;28;20272;-61
2022/12/27 06:04:09;;;;;;;56.47;31.47;;;3.10;99.90;;;;;;4127886;28;20906;-68
2022/12/27 06:06:11;;;;;;;56.00;30.53;;;3.10;99.90;;;;;;4128609;28;20276;-68
2022/12/27 06:08:12;;;;;;;52.97;29.80;;;3.10;99.90;;;;;;4128724;28;20260;-55
2022/12/27 06:10:14;;;;;;;54.53;29.67;;;3.20;99.90;;;;;;4128317;28;20733;-59
2022/12/27 06:12:15;;;;;;;53.00;30.27;;;3.10;99.90;;;;;;4128981;28;20268;-59
2022/12/27 06:14:16;;;;;;;56.73;30.73;;;3.10;99.90;;;;;;4128150;28;20275;-55
2022/12/27 06:16:20;;;;;;;50.47;29.67;;;3.10;99.90;;;;;;4128288;28;20296;-59
2022/12/27 06:18:21;;;;;;;51.67;29.83;;;3.10;99.90;;;;;;4127706;28;20775;-58
2022/12/27 06:20:22;;;;;;;51.63;29.23;;;3.10;99.90;;;;;;4127828;28;20292;-57
2022/12/27 06:22:24;;;;;;;52.00;27.90;;;3.10;99.90;;;;;;4126719;28;20279;-57
2022/12/27 06:24:25;;;;;;;52.97;29.70;;;3.20;99.90;;;;;;4128049;28;20295;-59
2022/12/27 06:26:28;;;;;;;48.20;27.23;;;3.30;99.90;;;;;;4127714;28;20268;-56
2022/12/27 06:28:29;;;;;;;65.80;34.17;;;3.30;99.90;;;;;;4129005;28;20307;-59
2022/12/27 06:30:30;;;;;;;63.63;31.93;;;3.30;99.90;;;;;;4127297;28;20264;-53
2022/12/27 06:32:32;;;;;;;59.60;31.60;;;3.30;99.90;;;;;;4127762;28;20326;-59
2022/12/27 06:34:33;;;;;;;58.30;31.53;;;3.30;99.90;;;;;;4127095;28;20335;-60
2022/12/27 06:36:34;;;;;;;59.63;33.13;;;3.20;99.90;;;;;;4127700;28;20296;-60
2022/12/27 06:38:35;;;;;;;55.47;29.83;;;3.10;99.90;;;;;;4127473;28;20263;-62
2022/12/27 06:40:37;;;;;;;55.20;30.07;;;3.10;99.90;;;;;;4127272;28;20252;-61
2022/12/27 06:42:38;;;;;;;54.33;29.43;;;3.10;99.90;;;;;;4126743;28;20280;-57
2022/12/27 06:44:39;;;;;;;58.07;30.50;;;3.10;99.90;;;;;;4127042;28;20260;-60
2022/12/27 06:46:40;;;;;;;54.20;30.43;;;3.10;99.90;;;;;;4127914;28;20571;-59
2022/12/27 06:48:41;;;;;;;60.63;32.80;;;3.10;99.90;;;;;;4126896;28;20331;-61
2022/12/27 06:50:42;;;;;;;66.57;38.00;;;3.00;99.90;;;;;;4127781;28;20335;-56
2022/12/27 06:52:45;;;;;;;58.53;33.90;;;3.00;99.90;;;;;;4126930;28;20322;-58
2022/12/27 06:54:46;;;;;;;54.27;32.00;;;3.00;99.90;;;;;;4128416;28;20280;-61
2022/12/27 06:56:47;;;;;;;56.37;28.63;;;2.90;99.90;;;;;;4127601;28;20296;-59
2022/12/27 06:58:50;;;;;;;58.90;31.23;;;2.90;99.90;;;;;;4128860;28;20268;-64
2022/12/27 07:00:51;;;;;;;56.73;30.87;;;2.90;99.90;;;;;;4126876;28;20276;-58
2022/12/27 07:02:52;;;;;;;58.53;33.63;;;2.90;99.90;;;;;;4127687;28;20280;-58
2022/12/27 07:04:53;;;;;;;66.00;36.20;;;2.90;99.90;;;;;;4127048;28;20670;-56
2022/12/27 07:06:54;;;;;;;60.60;34.50;;;3.00;99.90;;;;;;4128080;28;20275;-58
2022/12/27 07:08:57;;;;;;;63.67;36.13;;;3.00;99.90;;;;;;4128257;28;20272;-59
2022/12/27 07:10:59;;;;;;;58.97;35.53;;;3.00;99.90;;;;;;4127920;28;20303;-62
2022/12/27 07:13:00;;;;;;;62.50;36.07;;;3.00;99.90;;;;;;4128381;28;20264;-57
2022/12/27 07:15:03;;;;;;;60.03;34.33;;;3.10;99.90;;;;;;4127677;28;20264;-59
2022/12/27 07:17:04;;;;;;;70.30;37.30;;;3.10;99.90;;;;;;4128322;28;20300;-61
2022/12/27 07:19:05;;;;;;;64.57;35.70;;;3.10;99.90;;;;;;4109962;28;20748;-57
2022/12/27 07:21:09;;;;;;;64.87;36.10;;;3.20;99.90;;;;;;4128530;28;20272;-54
2022/12/27 07:23:12;;;;;;;60.63;34.57;;;3.20;99.90;;;;;;4127157;28;20326;-57
2022/12/27 07:25:13;;;;;;;62.53;35.93;;;3.30;99.90;;;;;;4128597;28;20342;-59
2022/12/27 07:27:14;;;;;;;61.80;35.37;;;3.30;99.90;;;;;;4127528;28;20260;-59
2022/12/27 07:29:15;;;;;;;60.90;34.77;;;3.40;99.90;;;;;;4127496;28;20299;-59
2022/12/27 07:31:19;;;;;;;64.07;32.53;;;3.40;99.90;;;;;;4127506;28;20281;-63
2022/12/27 07:33:20;;;;;;;60.37;34.03;;;3.50;99.90;;;;;;4128708;28;20284;-60
2022/12/27 07:35:21;;;;;;;53.53;31.00;;;3.50;99.90;;;;;;4126968;28;20760;-58
2022/12/27 07:37:23;;;;;;;62.73;32.70;;;3.60;99.90;;;;;;4128246;28;20268;-59
2022/12/27 07:39:24;;;;;;;64.73;33.67;;;3.60;99.90;;;;;;4127022;28;20319;-59
2022/12/27 07:41:25;;;;;;;65.90;35.43;;;3.70;99.90;;;;;;4129477;28;20276;-59
2022/12/27 07:43:29;;;;;;;70.37;36.10;;;3.70;99.90;;;;;;4129925;28;20276;-58
2022/12/27 07:45:31;;;;;;;70.93;39.00;;;3.70;99.90;;;;;;4130622;28;20271;-63
2022/12/27 07:47:32;;;;;;;63.80;34.50;;;3.70;99.90;;;;;;4130680;28;20268;-62
2022/12/27 07:49:33;;;;;;;69.83;39.50;;;3.80;99.90;;;;;;4129508;28;20613;-59
2022/12/27 07:51:34;;;;;;;71.03;36.97;;;3.80;99.90;;;;;;4130349;28;20302;-59
2022/12/27 07:53:36;;;;;;;61.33;34.20;;;3.80;99.90;;;;;;4130099;28;20814;-61
2022/12/27 07:55:37;;;;;;;56.33;32.90;;;3.90;99.90;;;;;;4130527;28;20296;-57
2022/12/27 07:57:38;;;;;;;59.70;33.13;;;3.90;99.90;;;;;;4130214;28;20268;-58
2022/12/27 07:59:39;;;;;;;58.17;33.03;;;3.90;99.90;;;;;;4130980;28;20276;-59
2022/12/27 08:04:01;;;;;;;72.30;36.97;;;4.10;99.90;;;;;;4131298;28;20322;-61
2022/12/27 08:06:03;;;;;;;58.77;32.07;;;4.00;99.90;;;;;;4130095;28;20272;-61
2022/12/27 08:08:04;;;;;;;61.07;34.30;;;4.00;99.90;;;;;;4130998;28;20272;-58
2022/12/27 08:10:06;;;;;;;59.53;32.53;;;4.00;99.90;;;;;;4129450;28;20327;-58
2022/12/27 08:12:07;;;;;;;60.03;34.40;;;4.10;99.90;;;;;;4130661;28;20272;-62
2022/12/27 08:14:08;;;;;;;64.83;37.40;;;4.10;99.90;;;;;;4129933;28;20248;-60
2022/12/27 08:16:18;;;;;;;66.03;39.90;;;4.10;99.90;;;;;;4130063;28;20321;-58
2022/12/27 08:18:20;;;;;;;70.60;41.40;;;4.10;99.90;;;;;;4129775;28;20264;-60
2022/12/27 08:20:21;;;;;;;69.30;40.63;;;4.10;99.90;;;;;;4129904;28;20375;-60
2022/12/27 08:22:23;;;;;;;68.53;38.40;;;4.20;99.90;;;;;;4128931;28;20287;-56
2022/12/27 08:24:24;;;;;;;66.27;37.20;;;4.30;99.90;;;;;;4128887;28;20354;-58
2022/12/27 08:26:25;;;;;;;59.60;33.50;;;4.40;99.90;;;;;;4129783;28;20280;-63
2022/12/27 08:28:30;;;;;;;60.90;33.77;;;4.50;99.90;;;;;;4128538;28;20268;-62
2022/12/27 08:30:31;;;;;;;62.97;33.93;;;4.60;99.90;;;;;;4129625;28;20092;-58
2022/12/27 08:32:33;;;;;;;59.80;33.90;;;4.70;99.90;;;;;;4129090;28;20715;-58
2022/12/27 08:34:34;;;;;;;58.70;35.17;;;4.90;99.90;;;;;;4130538;28;20268;-58
2022/12/27 08:36:35;;;;;;;63.83;36.70;;;5.00;99.90;;;;;;4129081;28;20363;-60
2022/12/27 08:38:36;;;;;;;62.43;34.93;;;5.10;99.90;;;;;;4112248;28;20335;-59
2022/12/27 08:40:42;;;;;;;57.27;34.27;;;5.40;99.90;;;;;;4128373;28;20097;-57
2022/12/27 08:42:43;;;;;;;79.40;45.20;;;5.60;99.90;;;;;;4130432;28;20325;-58
2022/12/27 08:44:44;;;;;;;80.50;44.07;;;5.80;99.90;;;;;;4128504;28;20502;-60
2022/12/27 08:46:46;;;;;;;77.03;44.00;;;5.80;99.90;;;;;;4129611;28;20042;-67
2022/12/27 08:48:47;;;;;;;65.93;40.03;;;6.00;99.90;;;;;;4129039;28;20459;-59
2022/12/27 08:50:49;;;;;;;62.53;39.53;;;6.30;99.90;;;;;;4129864;28;20034;-62
2022/12/27 08:52:50;;;;;;;55.47;35.67;;;6.40;99.90;;;;;;4127861;28;20104;-60
2022/12/27 08:54:51;;;;;;;53.23;34.20;;;6.50;99.90;;;;;;4129339;28;20077;-67
2022/12/27 08:56:52;;;;;;;63.10;37.80;;;6.40;99.90;;;;;;4129729;28;20148;-55
2022/12/27 08:58:53;;;;;;;55.23;33.00;;;6.40;99.90;;;;;;4128682;28;20042;-65
2022/12/27 09:00:54;;;;;;;44.10;27.37;;;6.40;99.90;;;;;;4130047;28;20038;-58
2022/12/27 09:02:56;;;;;;;30.87;19.83;;;6.50;99.90;;;;;;4129009;28;20022;-61
2022/12/27 09:04:57;;;;;;;20.83;14.07;;;6.80;99.90;;;;;;4129640;28;20371;-65
2022/12/27 09:06:58;;;;;;;16.47;11.23;;;7.10;99.90;;;;;;4128944;28;20026;-57
2022/12/27 09:09:00;;;;;;;15.10;9.27;;;7.60;99.90;;;;;;4129057;28;20057;-60
2022/12/27 09:11:13;;;;;;;14.53;8.90;;;8.10;99.90;;;;;;4128119;28;20046;-62
2022/12/27 09:13:14;;;;;;;10.17;6.83;;;8.60;99.90;;;;;;4129911;28;20479;-58
2022/12/27 09:15:15;;;;;;;11.67;7.00;;;8.70;99.90;;;;;;4128858;28;20023;-59
2022/12/27 09:17:16;;;;;;;19.00;10.67;;;9.00;99.90;;;;;;4129153;28;20097;-65
2022/12/27 09:19:18;;;;;;;14.33;8.73;;;9.10;99.90;;;;;;4128600;28;20096;-65
2022/12/27 09:21:21;;;;;;;19.93;10.90;;;9.20;99.90;;;;;;4129552;28;20510;-62
2022/12/27 09:23:22;;;;;;;12.80;8.70;;;9.30;99.90;;;;;;4128793;28;20033;-65
2022/12/27 09:25:23;;;;;;;10.40;5.90;;;9.40;99.90;;;;;;4129380;28;20085;-68
2022/12/27 09:27:25;;;;;;;5.03;3.30;;;9.50;99.90;;;;;;4129236;28;20077;-68
2022/12/27 09:29:26;;;;;;;4.90;3.70;;;9.80;99.90;;;;;;4128988;28;20430;-60
2022/12/27 09:31:27;;;;;;;2.50;2.20;;;10.00;99.90;;;;;;4128169;28;20050;-62
2022/12/27 09:33:28;;;;;;;4.47;3.40;;;10.20;99.90;;;;;;4127465;28;20518;-66
2022/12/27 09:35:30;;;;;;;3.67;2.90;;;10.20;99.90;;;;;;4128468;28;20043;-62
2022/12/27 09:37:31;;;;;;;4.33;2.70;;;10.30;99.90;;;;;;4128194;28;20046;-64
2022/12/27 09:39:32;;;;;;;4.10;2.80;;;10.40;99.90;;;;;;4129509;28;20471;-58
2022/12/27 09:41:48;;;;;;;6.07;3.73;;;10.50;99.90;;;;;;4128263;28;20109;-57
2022/12/27 09:43:49;;;;;;;3.50;2.30;;;10.70;99.90;;;;;;4129349;28;20022;-60
2022/12/27 09:45:54;;;;;;;5.23;2.53;;;10.70;99.90;;;;;;4127459;28;20042;-59
2022/12/27 09:48:09;;;;;;;4.20;1.50;;;10.80;99.90;;;;;;4128408;28;20034;-62
2022/12/27 09:50:24;;;;;;;3.53;1.70;;;10.80;99.90;;;;;;4128160;28;20030;-60
2022/12/27 09:52:33;;;;;;;3.53;1.80;;;10.80;99.90;;;;;;4128701;28;20545;-59
2022/12/27 09:55:09;;;;;;;4.00;3.10;;;10.80;99.90;;;;;;4127846;28;20038;-60
2022/12/27 09:57:34;;;;;;;2.23;1.57;;;10.90;99.90;;;;;;4128965;28;20054;-64
2022/12/27 09:59:45;;;;;;;2.97;1.77;;;11.00;99.90;;;;;;4127521;28;20442;-59
2022/12/27 10:01:47;;;;;;;3.33;1.83;;;11.00;99.90;;;;;;4128041;28;20053;-59
2022/12/27 10:03:49;;;;;;;2.37;1.87;;;11.00;99.90;;;;;;4127020;28;20046;-62
2022/12/27 10:06:14;;;;;;;2.50;1.80;;;11.00;99.90;;;;;;4128528;28;20524;-60
2022/12/27 10:08:45;;;;;;;2.13;1.80;;;11.00;99.90;;;;;;4127993;28;20474;-54
2022/12/27 10:11:07;;;;;;;4.07;2.10;;;11.10;99.90;;;;;;4127518;28;20089;-59
2022/12/27 10:13:38;;;;;;;2.47;1.50;;;11.20;99.90;;;;;;4128614;28;20528;-62
2022/12/27 10:15:48;;;;;;;2.33;1.70;;;11.10;99.90;;;;;;4127384;28;20498;-58
2022/12/27 10:18:17;;;;;;;1.30;1.17;;;11.10;99.90;;;;;;4128243;28;20856;-61
2022/12/27 10:20:21;;;;;;;1.47;1.37;;;11.10;99.90;;;;;;4125688;28;20050;-59
2022/12/27 10:22:46;;;;;;;1.80;1.40;;;11.10;99.90;;;;;;4128671;28;20042;-60
2022/12/27 10:24:52;;;;;;;3.60;1.67;;;11.10;99.90;;;;;;4127286;28;20042;-67
2022/12/27 10:26:54;;;;;;;2.23;2.03;;;11.10;99.90;;;;;;4128856;28;20046;-61
2022/12/27 10:29:00;;;;;;;4.73;2.00;;;11.10;99.90;;;;;;4127639;28;20533;-61
2022/12/27 10:31:03;;;;;;;2.80;1.57;;;11.20;99.90;;;;;;4128717;28;20030;-59
2022/12/27 10:33:04;;;;;;;1.63;1.53;;;11.20;99.90;;;;;;4127211;28;20038;-62
2022/12/27 10:35:05;;;;;;;1.70;1.40;;;11.20;99.90;;;;;;4127779;28;20042;-66
2022/12/27 10:37:17;;;;;;;2.30;1.10;;;11.20;99.90;;;;;;4126366;28;20089;-58
2022/12/27 10:39:24;;;;;;;1.03;0.97;;;11.20;99.90;;;;;;4128000;28;20043;-62
2022/12/27 10:41:43;;;;;;;1.13;0.80;;;11.20;99.90;;;;;;4126720;28;20026;-59
2022/12/27 10:43:50;;;;;;;1.10;1.10;;;11.20;99.90;;;;;;4129018;28;20026;-57
2022/12/27 10:45:52;;;;;;;1.27;1.17;;;11.10;99.90;;;;;;4127057;28;20096;-61
2022/12/27 10:47:55;;;;;;;3.17;1.43;;;11.10;99.90;;;;;;4128460;28;20449;-63
2022/12/27 10:50:08;;;;;;;1.30;1.20;;;11.10;99.90;;;;;;4127014;28;20050;-57
2022/12/27 10:52:16;;;;;;;1.30;1.17;;;11.10;99.90;;;;;;4127567;28;20046;-61
2022/12/27 10:54:27;;;;;;;3.03;1.60;;;11.00;99.90;;;;;;4127382;28;20084;-56
2022/12/27 10:56:31;;;;;;;6.00;1.30;;;11.10;99.90;;;;;;4127782;28;20109;-58
2022/12/27 10:58:48;;;;;;;1.47;1.03;;;11.10;99.90;;;;;;4127154;28;20096;-64
2022/12/27 11:00:55;;;;;;;2.00;1.77;;;11.10;99.90;;;;;;4127567;28;20112;-60
2022/12/27 11:02:59;;;;;;;2.23;1.40;;;11.10;99.90;;;;;;4127418;28;20092;-60
2022/12/27 11:05:00;;;;;;;1.63;1.37;;;11.10;99.90;;;;;;4128237;28;20089;-58
2022/12/27 11:07:01;;;;;;;1.97;1.60;;;11.10;99.90;;;;;;4126906;28;20100;-60
2022/12/27 11:09:17;;;;;;;2.83;1.50;;;11.10;99.90;;;;;;4127695;28;20038;-59
2022/12/27 11:11:22;;;;;;;1.77;1.13;;;11.20;99.90;;;;;;4127328;28;20034;-62
2022/12/27 11:13:23;;;;;;;1.37;0.90;;;11.20;99.90;;;;;;4127423;28;20038;-58
2022/12/27 11:15:26;;;;;;;1.40;1.30;;;11.20;99.90;;;;;;4127454;28;20152;-59
2022/12/27 11:18:00;;;;;;;1.53;1.43;;;11.20;99.90;;;;;;4130563;28;20439;-61
2022/12/27 11:20:19;;;;;;;8.13;2.13;;;11.20;99.90;;;;;;4129791;28;20108;-61
2022/12/27 11:22:20;;;;;;;2.40;2.17;;;11.30;99.90;;;;;;4131115;28;20073;-60
2022/12/27 11:24:22;;;;;;;2.73;1.40;;;11.30;99.90;;;;;;4130013;28;20026;-61
2022/12/27 11:26:40;;;;;;;2.60;1.40;;;11.30;99.90;;;;;;4131020;28;20313;-59
2022/12/27 11:28:56;;;;;;;2.60;1.47;;;11.30;99.90;;;;;;4130141;28;20030;-59
2022/12/27 11:31:01;;;;;;;1.67;1.30;;;11.20;99.90;;;;;;4131030;28;20030;-58
2022/12/27 11:33:25;;;;;;;3.73;1.17;;;11.20;99.90;;;;;;4130216;28;20085;-59
2022/12/27 11:35:26;;;;;;;2.33;1.27;;;11.20;99.90;;;;;;4130641;28;21055;-62
2022/12/27 11:37:27;;;;;;;2.53;1.67;;;11.10;99.90;;;;;;4130572;28;20037;-63
2022/12/27 11:39:50;;;;;;;2.07;1.70;;;11.10;99.90;;;;;;4130105;28;20042;-60
2022/12/27 11:41:55;;;;;;;9.50;2.93;;;11.10;99.90;;;;;;4130131;28;20065;-63
2022/12/27 11:44:12;;;;;;;1.73;1.30;;;11.10;99.90;;;;;;4129644;28;20065;-60
2022/12/27 11:46:24;;;;;;;2.10;1.37;;;11.20;99.90;;;;;;4129771;28;20034;-59
2022/12/27 11:48:37;;;;;;;2.33;1.50;;;11.20;99.90;;;;;;4131170;28;20086;-60
2022/12/27 11:50:56;;;;;;;2.93;1.03;;;11.10;99.90;;;;;;4130254;28;20026;-59
2022/12/27 11:53:09;;;;;;;3.03;1.47;;;11.10;99.90;;;;;;4131410;28;20448;-60
2022/12/27 11:55:38;;;;;;;2.67;1.53;;;11.10;99.90;;;;;;4130035;28;20038;-63
2022/12/27 11:57:59;;;;;;;2.17;1.50;;;11.10;99.90;;;;;;4130907;28;20482;-59
2022/12/27 12:00:18;;;;;;;1.52;1.20;;;11.10;99.90;;;;;;4130031;28;20080;-61
2022/12/27 12:02:25;;;;;;;2.37;1.20;;;11.10;99.90;;;;;;4131008;28;20034;-62
2022/12/27 12:05:10;;;;;;;1.77;1.00;;;11.20;99.90;;;;;;4130041;28;20450;-60
2022/12/27 12:07:20;;;;;;;2.27;1.20;;;11.20;99.90;;;;;;4130438;28;20034;-59
2022/12/27 12:09:38;;;;;;;1.98;1.15;;;11.20;99.90;;;;;;4129323;28;20380;-58
2022/12/27 12:11:45;;;;;;;1.83;1.03;;;11.20;99.90;;;;;;4130491;28;20101;-62
2022/12/27 12:13:59;;;;;;;2.17;1.40;;;11.30;99.90;;;;;;4130032;28;20030;-59
2022/12/27 12:16:02;;;;;;;2.83;1.03;;;11.30;99.90;;;;;;4130239;28;20077;-58
2022/12/27 12:18:09;;;;;;;1.60;0.97;;;11.30;99.90;;;;;;4128805;28;20100;-58
2022/12/27 12:20:36;;;;;;;2.17;1.03;;;11.30;99.90;;;;;;4130007;28;20038;-59
2022/12/27 12:23:11;;;;;;;0.80;0.80;;;11.30;99.90;;;;;;4129176;28;20539;-60
2022/12/27 12:25:37;;;;;;;1.53;0.97;;;11.30;99.90;;;;;;4129123;28;20553;-61
2022/12/27 12:28:02;;;;;;;1.70;1.03;;;11.20;99.90;;;;;;4128765;28;20046;-60
2022/12/27 12:30:19;;;;;;;2.10;1.53;;;11.20;99.90;;;;;;4128777;28;20042;-56
2022/12/27 12:32:28;;;;;;;1.53;1.03;;;11.20;99.90;;;;;;4129788;28;20491;-58
2022/12/27 12:34:53;;;;;;;1.30;0.77;;;11.10;99.90;;;;;;4129406;28;20081;-58